createdAt,value
2022-11-24T00:01:25.384Z,1.42
2022-11-24T00:04:03.409Z,1.65
2022-11-24T00:06:31.845Z,1.70
2022-11-24T00:08:58.984Z,1.60
2022-11-24T00:11:28.756Z,1.83
2022-11-24T00:13:56.083Z,1.60
2022-11-24T00:16:28.253Z,1.65
2022-11-24T00:18:56.856Z,1.23
2022-11-24T00:21:25.165Z,1.77
2022-11-24T00:23:52.009Z,2.13
2022-11-24T00:26:30.379Z,1.73
2022-11-24T00:28:59.987Z,1.33
2022-11-24T00:31:37.307Z,1.85
2022-11-24T00:34:06.393Z,1.03
2022-11-24T00:36:34.989Z,1.35
2022-11-24T00:39:04.434Z,1.98
2022-11-24T00:41:31.635Z,1.33
2022-11-24T00:43:58.917Z,1.00
2022-11-24T00:46:26.414Z,1.50
2022-11-24T00:48:54.111Z,0.98
2022-11-24T00:51:23.182Z,1.50
2022-11-24T00:53:49.708Z,2.10
2022-11-24T00:56:16.256Z,1.30
2022-11-24T00:58:42.745Z,1.40
2022-11-24T01:01:13.516Z,1.60
2022-11-24T01:03:40.614Z,1.77
2022-11-24T01:06:26.894Z,1.90
2022-11-24T01:08:54.087Z,1.33
2022-11-24T01:11:29.186Z,2.13
2022-11-24T01:13:58.492Z,1.45
2022-11-24T01:16:28.712Z,1.92
2022-11-24T01:18:55.988Z,1.92
2022-11-24T01:21:23.361Z,1.60
2022-11-24T01:23:50.462Z,1.90
2022-11-24T01:26:20.455Z,1.50
2022-11-24T01:28:47.897Z,1.98
2022-11-24T01:31:15.673Z,1.60
2022-11-24T01:33:42.319Z,1.70
2022-11-24T01:36:08.847Z,1.30
2022-11-24T01:38:35.373Z,1.65
2022-11-24T01:41:03.062Z,2.03
2022-11-24T01:43:29.620Z,1.42
2022-11-24T01:45:58.665Z,1.65
2022-11-24T01:48:32.594Z,1.27
2022-11-24T01:51:15.099Z,1.10
2022-11-24T01:53:45.676Z,1.58
2022-11-24T01:56:13.673Z,1.30
2022-11-24T01:58:43.144Z,1.20
2022-11-24T02:01:09.851Z,1.20
2022-11-24T02:03:39.756Z,1.60
2022-11-24T02:06:12.755Z,1.35
2022-11-24T02:08:39.188Z,1.30
2022-11-24T02:11:06.480Z,1.20
2022-11-24T02:13:38.309Z,1.10
2022-11-24T02:16:07.933Z,1.27
2022-11-24T02:18:34.569Z,1.48
2022-11-24T02:21:01.275Z,1.00
2022-11-24T02:23:38.752Z,0.80
2022-11-24T02:26:41.618Z,1.03
2022-11-24T02:29:09.444Z,0.80
2022-11-24T02:31:36.023Z,1.00
2022-11-24T02:34:02.476Z,0.90
2022-11-24T02:36:28.978Z,1.05
2022-11-24T02:38:55.396Z,0.80
2022-11-24T02:41:25.239Z,0.90
2022-11-24T02:43:57.164Z,0.80
2022-11-24T02:46:23.659Z,0.93
2022-11-24T02:48:50.164Z,0.88
2022-11-24T02:51:16.833Z,0.70
2022-11-24T02:53:43.323Z,1.70
2022-11-24T02:56:09.789Z,1.05
2022-11-24T02:58:36.488Z,1.13
2022-11-24T03:01:03.179Z,1.17
2022-11-24T03:03:29.718Z,1.40
2022-11-24T03:05:56.213Z,0.80
2022-11-24T03:08:22.696Z,1.08
2022-11-24T03:10:49.271Z,1.00
2022-11-24T03:13:15.908Z,1.33
2022-11-24T03:15:42.432Z,0.77
2022-11-24T03:18:09.007Z,0.70
2022-11-24T03:20:35.422Z,1.15
2022-11-24T03:23:01.897Z,0.98
2022-11-24T03:25:28.339Z,1.58
2022-11-24T03:27:57.164Z,0.87
2022-11-24T03:30:23.698Z,0.40
2022-11-24T03:32:53.482Z,2.47
2022-11-24T03:35:21.145Z,1.08
2022-11-24T03:37:48.266Z,1.65
2022-11-24T03:40:14.941Z,0.80
2022-11-24T03:42:41.403Z,1.10
2022-11-24T03:47:54.823Z,1.15
2022-11-24T03:50:21.375Z,0.60
2022-11-24T03:52:47.787Z,1.10
2022-11-24T03:55:14.331Z,0.93
2022-11-24T03:57:40.779Z,1.98
2022-11-24T04:00:08.044Z,0.80
2022-11-24T04:02:34.504Z,1.17
2022-11-24T04:05:01.008Z,1.37
2022-11-24T04:07:27.498Z,1.52
2022-11-24T04:09:53.919Z,1.00
2022-11-24T04:12:38.946Z,1.25
2022-11-24T04:15:05.962Z,0.80
2022-11-24T04:17:32.416Z,0.93
2022-11-24T04:19:58.888Z,0.98
2022-11-24T04:22:25.609Z,1.25
2022-11-24T04:24:52.067Z,0.90
2022-11-24T04:27:18.496Z,0.93
2022-11-24T04:29:45.000Z,1.07
2022-11-24T04:32:11.415Z,0.98
2022-11-24T04:34:37.863Z,1.38
2022-11-24T04:37:04.295Z,1.30
2022-11-24T04:39:30.859Z,0.88
2022-11-24T04:41:57.288Z,1.10
2022-11-24T04:44:23.729Z,1.05
2022-11-24T04:46:50.215Z,1.13
2022-11-24T04:49:16.757Z,0.93
2022-11-24T04:51:43.572Z,0.90
2022-11-24T04:54:12.124Z,1.27
2022-11-24T04:56:39.697Z,1.15
2022-11-24T04:59:08.406Z,1.08
2022-11-24T05:01:35.400Z,0.93
2022-11-24T05:04:01.961Z,1.17
2022-11-24T05:06:28.531Z,1.37
2022-11-24T05:08:54.960Z,1.30
2022-11-24T05:11:21.451Z,1.60
2022-11-24T05:13:47.920Z,0.85
2022-11-24T05:16:14.390Z,1.00
2022-11-24T05:18:40.940Z,0.77
2022-11-24T05:21:07.336Z,0.80
2022-11-24T05:23:33.794Z,0.70
2022-11-24T05:26:01.235Z,0.55
2022-11-24T05:28:28.116Z,0.63
2022-11-24T05:30:54.877Z,0.60
2022-11-24T05:33:23.006Z,0.55
2022-11-24T05:35:50.200Z,0.68
2022-11-24T05:38:17.921Z,0.40
2022-11-24T05:40:44.532Z,0.47
2022-11-24T05:43:15.630Z,0.30
2022-11-24T05:45:43.265Z,0.63
2022-11-24T05:48:14.317Z,0.38
2022-11-24T05:50:41.015Z,0.40
2022-11-24T05:53:12.881Z,0.30
2022-11-24T05:55:41.434Z,0.43
2022-11-24T05:58:09.883Z,0.20
2022-11-24T06:00:36.946Z,0.30
2022-11-24T06:03:04.040Z,0.32
2022-11-24T06:05:30.699Z,0.40
2022-11-24T06:08:00.445Z,0.20
2022-11-24T06:10:27.252Z,0.30
2022-11-24T06:12:53.888Z,0.30
2022-11-24T06:15:20.449Z,0.20
2022-11-24T06:17:56.786Z,0.30
2022-11-24T06:20:27.215Z,0.40
2022-11-24T06:22:59.030Z,0.30
2022-11-24T06:25:25.572Z,0.50
2022-11-24T06:27:52.075Z,0.38
2022-11-24T06:30:18.519Z,0.50
2022-11-24T06:32:49.295Z,0.30
2022-11-24T06:35:16.450Z,0.40
2022-11-24T06:37:43.076Z,0.68
2022-11-24T06:40:10.038Z,0.40
2022-11-24T06:42:37.407Z,0.70
2022-11-24T06:45:08.982Z,0.33
2022-11-24T06:47:36.247Z,0.50
2022-11-24T06:50:02.854Z,0.40
2022-11-24T06:52:29.302Z,0.85
2022-11-24T06:54:55.973Z,1.10
2022-11-24T06:57:22.426Z,0.90
2022-11-24T06:59:49.080Z,1.05
2022-11-24T07:02:15.525Z,1.60
2022-11-24T07:04:42.000Z,1.35
2022-11-24T07:07:08.735Z,1.80
2022-11-24T07:09:35.260Z,2.23
2022-11-24T07:12:02.349Z,1.80
2022-11-24T07:14:28.780Z,2.85
2022-11-24T07:16:55.378Z,2.72
2022-11-24T07:19:25.081Z,2.63
2022-11-24T07:21:52.026Z,2.77
2022-11-24T07:24:18.897Z,2.97
2022-11-24T07:26:45.584Z,3.08
2022-11-24T07:29:12.041Z,2.88
2022-11-24T07:31:38.636Z,3.55
2022-11-24T07:34:05.292Z,3.60
2022-11-24T07:36:31.877Z,3.83
2022-11-24T07:38:58.494Z,3.90
2022-11-24T07:41:25.453Z,3.35
2022-11-24T07:43:52.026Z,3.90
2022-11-24T07:46:20.005Z,3.40
2022-11-24T07:48:47.295Z,3.67
2022-11-24T07:51:14.192Z,3.38
2022-11-24T07:53:40.745Z,3.63
2022-11-24T07:56:07.749Z,3.50
2022-11-24T07:58:36.685Z,3.13
2022-11-24T08:01:15.247Z,3.95
2022-11-24T08:03:43.645Z,6.22
2022-11-24T08:06:32.232Z,4.32
2022-11-24T08:08:59.025Z,3.17
2022-11-24T08:11:26.047Z,3.20
2022-11-24T08:13:52.610Z,2.80
2022-11-24T08:16:20.523Z,3.03
2022-11-24T08:18:53.242Z,3.03
2022-11-24T08:21:20.244Z,3.03
2022-11-24T08:23:47.171Z,3.10
2022-11-24T08:26:17.843Z,3.00
2022-11-24T08:28:45.585Z,3.10
2022-11-24T08:31:15.058Z,3.20
2022-11-24T08:33:41.865Z,3.72
2022-11-24T08:36:16.531Z,2.73
2022-11-24T08:38:44.741Z,2.65
2022-11-24T08:41:14.007Z,2.90
2022-11-24T08:43:41.396Z,3.03
2022-11-24T08:46:11.061Z,3.30
2022-11-24T08:48:37.925Z,2.90
2022-11-24T08:51:13.529Z,3.50
2022-11-24T08:53:41.320Z,3.03
2022-11-24T08:56:09.364Z,2.45
2022-11-24T08:58:38.017Z,3.35
2022-11-24T09:01:07.607Z,2.53
2022-11-24T09:03:34.828Z,2.80
2022-11-24T09:06:02.424Z,2.90
2022-11-24T09:08:33.141Z,2.35
2022-11-24T09:11:01.418Z,2.70
2022-11-24T09:13:28.660Z,1.90
2022-11-24T09:15:55.265Z,2.13
2022-11-24T09:18:25.235Z,2.30
2022-11-24T09:20:58.377Z,2.50
2022-11-24T09:23:24.798Z,2.33
2022-11-24T09:25:51.648Z,2.13
2022-11-24T09:28:18.124Z,1.90
2022-11-24T09:30:44.611Z,2.10
2022-11-24T09:33:11.100Z,1.85
2022-11-24T09:35:38.510Z,1.77
2022-11-24T09:38:05.643Z,2.00
2022-11-24T09:40:32.809Z,1.70
2022-11-24T09:43:08.487Z,1.45
2022-11-24T09:46:05.375Z,1.42
2022-11-24T09:48:55.523Z,1.20
2022-11-24T09:51:27.096Z,1.20
2022-11-24T09:54:03.309Z,0.93
2022-11-24T09:56:34.586Z,1.20
2022-11-24T09:59:06.461Z,1.30
2022-11-24T10:01:40.503Z,1.15
2022-11-24T10:04:40.346Z,1.20
2022-11-24T10:07:51.010Z,1.27
2022-11-24T10:10:25.178Z,1.70
2022-11-24T10:12:58.021Z,1.08
2022-11-24T10:15:53.536Z,0.88
2022-11-24T10:18:34.684Z,0.90
2022-11-24T10:21:22.297Z,1.02
2022-11-24T10:24:02.968Z,1.15
2022-11-24T10:26:29.406Z,1.63
2022-11-24T10:28:56.425Z,1.33
2022-11-24T10:31:30.814Z,0.97
2022-11-24T10:34:03.436Z,0.85
2022-11-24T10:36:38.794Z,1.00
2022-11-24T10:39:37.275Z,0.98
2022-11-24T10:42:29.681Z,1.58
2022-11-24T10:45:01.430Z,5.03
2022-11-24T10:47:29.052Z,1.33
2022-11-24T10:50:01.178Z,1.02
2022-11-24T10:52:30.897Z,1.08
2022-11-24T10:55:02.352Z,1.08
2022-11-24T10:57:34.484Z,2.00
2022-11-24T11:00:03.442Z,2.03
2022-11-24T11:02:40.037Z,1.17
2022-11-24T11:05:35.167Z,0.95
2022-11-24T11:08:22.270Z,0.82
2022-11-24T11:10:51.723Z,1.30
2022-11-24T11:13:29.424Z,1.00
2022-11-24T11:15:57.648Z,1.13
2022-11-24T11:18:34.019Z,1.63
2022-11-24T11:21:02.416Z,1.42
2022-11-24T11:23:32.335Z,1.10
2022-11-24T11:26:20.044Z,1.25
2022-11-24T11:34:49.187Z,1.65
2022-11-24T11:37:16.692Z,1.40
2022-11-24T11:39:48.837Z,1.20
2022-11-24T11:45:27.829Z,1.10
2022-11-24T11:48:23.908Z,1.42
2022-11-24T11:54:22.594Z,1.42
2022-11-24T11:56:56.371Z,1.58
2022-11-24T11:59:55.154Z,1.40
2022-11-24T12:02:53.296Z,2.05
2022-11-24T12:05:58.907Z,1.13
2022-11-24T12:09:19.841Z,1.95
2022-11-24T12:12:14.230Z,1.85
2022-11-24T12:15:05.858Z,1.40
2022-11-24T12:18:21.515Z,1.63
2022-11-24T12:21:09.217Z,1.50
2022-11-24T12:23:38.573Z,1.30
2022-11-24T12:26:24.553Z,1.10
2022-11-24T12:29:00.022Z,1.92
2022-11-24T12:31:39.048Z,1.63
2022-11-24T12:34:34.937Z,1.27
2022-11-24T12:37:13.561Z,1.40
2022-11-24T12:39:49.696Z,1.13
2022-11-24T12:42:34.281Z,1.38
2022-11-24T12:45:09.816Z,1.52
2022-11-24T12:47:48.480Z,1.10
2022-11-24T12:50:19.348Z,1.30
2022-11-24T12:52:58.677Z,1.13
2022-11-24T12:55:26.577Z,1.60
2022-11-24T12:58:11.059Z,1.20
2022-11-24T13:01:16.930Z,0.90
2022-11-24T13:04:21.143Z,1.10
2022-11-24T13:06:57.909Z,1.80
2022-11-24T13:09:24.395Z,1.58
2022-11-24T13:12:05.160Z,1.52
2022-11-24T13:14:33.973Z,1.30
2022-11-24T13:17:30.709Z,1.27
2022-11-24T13:20:21.132Z,1.55
2022-11-24T13:23:16.963Z,1.38
2022-11-24T13:26:27.489Z,2.20
2022-11-24T13:29:03.530Z,1.30
2022-11-24T13:31:32.514Z,1.38
2022-11-24T13:33:59.072Z,1.60
2022-11-24T13:36:25.833Z,1.50
2022-11-24T13:38:53.991Z,1.33
2022-11-24T13:41:32.721Z,1.60
2022-11-24T13:44:15.309Z,1.27
2022-11-24T13:47:05.803Z,1.20
2022-11-24T13:49:40.786Z,1.30
2022-11-24T13:52:46.194Z,1.10
2022-11-24T13:55:12.607Z,1.10
2022-11-24T13:57:52.029Z,1.00
2022-11-24T14:00:23.094Z,1.15
2022-11-24T14:02:52.270Z,1.25
2022-11-24T14:05:22.624Z,1.58
2022-11-24T14:07:51.700Z,0.90
2022-11-24T14:10:23.475Z,1.40
2022-11-24T14:13:28.409Z,1.27
2022-11-24T14:16:07.176Z,1.27
2022-11-24T14:18:35.199Z,1.52
2022-11-24T14:21:22.222Z,1.30
2022-11-24T14:23:53.061Z,1.65
2022-11-24T14:26:22.016Z,2.03
2022-11-24T14:28:49.313Z,0.68
2022-11-24T14:31:24.845Z,1.27
2022-11-24T14:34:07.074Z,1.30
2022-11-24T14:36:33.582Z,1.08
2022-11-24T14:39:00.101Z,1.63
2022-11-24T14:41:28.341Z,1.13
2022-11-24T14:44:16.415Z,1.60
2022-11-24T14:46:42.910Z,1.20
2022-11-24T14:49:09.668Z,1.75
2022-11-24T14:51:37.879Z,1.20
2022-11-24T14:54:15.175Z,1.55
2022-11-24T14:56:42.136Z,1.75
2022-11-24T14:59:23.467Z,1.37
2022-11-24T15:01:50.005Z,1.17
2022-11-24T15:04:54.578Z,1.30
2022-11-24T15:07:29.119Z,2.05
2022-11-24T15:09:58.679Z,1.27
2022-11-24T15:12:30.568Z,1.20
2022-11-24T15:14:59.518Z,1.33
2022-11-24T15:17:28.607Z,1.58
2022-11-24T15:20:01.425Z,1.60
2022-11-24T15:22:43.587Z,1.60
2022-11-24T15:25:32.382Z,1.80
2022-11-24T15:27:59.527Z,1.38
2022-11-24T15:30:26.711Z,1.45
2022-11-24T15:32:58.431Z,1.65
2022-11-24T15:35:29.972Z,1.50
2022-11-24T15:37:56.799Z,1.90
2022-11-24T15:40:23.553Z,1.40
2022-11-24T15:42:52.914Z,1.67
2022-11-24T15:45:20.950Z,1.80
2022-11-24T15:47:47.688Z,1.90
2022-11-24T15:50:14.865Z,1.27
2022-11-24T15:52:42.257Z,1.60
2022-11-24T15:55:22.378Z,1.88
2022-11-24T15:57:49.179Z,1.77
2022-11-24T16:00:18.584Z,1.40
2022-11-24T16:02:45.172Z,1.90
2022-11-24T16:05:12.312Z,1.75
2022-11-24T16:07:38.901Z,1.77
2022-11-24T16:10:07.352Z,2.10
2022-11-24T16:12:33.847Z,1.77
2022-11-24T16:15:00.339Z,1.90
2022-11-24T16:17:26.857Z,1.60
2022-11-24T16:20:00.109Z,1.70
2022-11-24T16:22:27.326Z,1.50
2022-11-24T16:24:53.960Z,1.60
2022-11-24T16:27:20.400Z,1.57
2022-11-24T16:29:46.860Z,1.75
2022-11-24T16:32:13.366Z,1.95
2022-11-24T16:34:39.802Z,2.20
2022-11-24T16:37:06.247Z,2.13
2022-11-24T16:39:32.687Z,2.10
2022-11-24T16:41:59.144Z,2.42
2022-11-24T16:44:25.644Z,2.30
2022-11-24T16:46:52.127Z,2.85
2022-11-24T16:49:18.757Z,2.60
2022-11-24T16:51:45.193Z,1.90
2022-11-24T16:54:11.761Z,2.10
2022-11-24T16:56:38.216Z,3.03
2022-11-24T16:59:04.725Z,2.13
2022-11-24T17:01:32.791Z,2.53
2022-11-24T17:04:00.312Z,2.20
2022-11-24T17:06:26.950Z,1.70
2022-11-24T17:08:55.373Z,2.88
2022-11-24T17:11:23.800Z,2.22
2022-11-24T17:13:50.418Z,2.10
2022-11-24T17:16:19.441Z,2.77
2022-11-24T17:18:46.497Z,1.95
2022-11-24T17:21:24.009Z,2.90
2022-11-24T17:23:57.695Z,2.50
2022-11-24T17:26:25.343Z,2.50
2022-11-24T17:28:52.665Z,1.87
2022-11-24T17:31:24.663Z,2.15
2022-11-24T17:33:53.610Z,2.10
2022-11-24T17:36:20.451Z,2.10
2022-11-24T17:38:49.446Z,2.08
2022-11-24T17:41:16.689Z,2.00
2022-11-24T17:43:43.134Z,2.08
2022-11-24T17:46:10.401Z,2.10
2022-11-24T17:48:36.891Z,1.95
2022-11-24T17:51:14.853Z,2.55
2022-11-24T17:53:43.582Z,2.13
2022-11-24T17:56:13.725Z,2.38
2022-11-24T17:58:43.051Z,2.40
2022-11-24T18:01:11.183Z,1.67
2022-11-24T18:03:41.440Z,2.20
2022-11-24T18:06:12.805Z,2.37
2022-11-24T18:08:45.226Z,2.20
2022-11-24T18:11:14.456Z,1.88
2022-11-24T18:13:56.603Z,2.00
2022-11-24T18:16:28.072Z,2.35
2022-11-24T18:19:07.849Z,2.90
2022-11-24T18:21:37.681Z,3.28
2022-11-24T18:24:04.226Z,2.80
2022-11-24T18:26:30.696Z,2.28
2022-11-24T18:28:57.207Z,2.40
2022-11-24T18:31:23.879Z,2.37
2022-11-24T18:33:50.347Z,2.47
2022-11-24T18:36:18.920Z,2.75
2022-11-24T18:38:45.424Z,2.78
2022-11-24T18:41:13.827Z,2.42
2022-11-24T18:43:40.643Z,2.87
2022-11-24T18:46:10.214Z,2.78
2022-11-24T18:48:36.892Z,2.40
2022-11-24T18:51:03.843Z,3.00
2022-11-24T18:53:30.409Z,2.28
2022-11-24T18:56:02.966Z,2.83
2022-11-24T18:58:31.458Z,2.45
2022-11-24T19:01:08.033Z,2.17
2022-11-24T19:03:41.341Z,2.92
2022-11-24T19:06:14.072Z,2.58
2022-11-24T19:08:40.589Z,1.77
2022-11-24T19:11:07.367Z,2.13
2022-11-24T19:13:33.800Z,2.17
2022-11-24T19:16:00.354Z,1.73
2022-11-24T19:18:29.309Z,2.22
2022-11-24T19:20:57.252Z,3.07
2022-11-24T19:23:23.801Z,2.92
2022-11-24T19:25:50.280Z,2.65
2022-11-24T19:28:16.695Z,2.08
2022-11-24T19:30:45.283Z,2.33
2022-11-24T19:33:11.873Z,1.47
2022-11-24T19:35:38.340Z,2.03
2022-11-24T19:38:04.784Z,2.38
2022-11-24T19:40:31.483Z,2.40
2022-11-24T19:42:57.954Z,2.38
2022-11-24T19:45:24.478Z,2.10
2022-11-24T19:47:51.019Z,1.70
2022-11-24T19:50:18.503Z,1.95
2022-11-24T19:52:45.987Z,2.30
2022-11-24T19:55:12.453Z,2.15
2022-11-24T19:57:38.916Z,1.57
2022-11-24T20:00:07.048Z,2.08
2022-11-24T20:02:33.766Z,1.70
2022-11-24T20:05:00.358Z,2.10
2022-11-24T20:07:26.833Z,2.20
2022-11-24T20:09:53.350Z,2.10
2022-11-24T20:12:19.869Z,1.80
2022-11-24T20:14:46.339Z,1.90
2022-11-24T20:17:13.976Z,1.42
2022-11-24T20:19:40.530Z,1.85
2022-11-24T20:22:07.008Z,1.50
2022-11-24T20:24:33.708Z,2.50
2022-11-24T20:27:00.449Z,2.05
2022-11-24T20:29:29.110Z,1.77
2022-11-24T20:31:56.395Z,1.95
2022-11-24T20:34:24.146Z,2.30
2022-11-24T20:36:52.999Z,2.80
2022-11-24T20:39:23.835Z,1.98
2022-11-24T20:41:50.281Z,2.20
2022-11-24T20:44:19.490Z,1.60
2022-11-24T20:46:46.660Z,2.27
2022-11-24T20:49:17.112Z,1.80
2022-11-24T20:51:46.926Z,1.80
2022-11-24T20:54:14.485Z,2.13
2022-11-24T20:56:43.249Z,1.90
2022-11-24T20:59:18.603Z,2.07
2022-11-24T21:01:46.559Z,1.30
2022-11-24T21:04:20.285Z,1.95
2022-11-24T21:06:47.648Z,1.48
2022-11-24T21:09:14.138Z,1.58
2022-11-24T21:11:41.399Z,1.83
2022-11-24T21:14:08.635Z,1.38
2022-11-24T21:16:37.397Z,1.65
2022-11-24T21:19:06.472Z,1.70
2022-11-24T21:21:36.305Z,1.30
2022-11-24T21:24:05.262Z,1.80
2022-11-24T21:26:34.989Z,1.38
2022-11-24T21:29:01.457Z,1.33
2022-11-24T21:31:28.015Z,2.00
2022-11-24T21:33:55.310Z,2.03
2022-11-24T21:36:24.242Z,1.40
2022-11-24T21:38:56.035Z,1.50
2022-11-24T21:41:23.819Z,1.27
2022-11-24T21:43:51.632Z,1.80
2022-11-24T21:46:18.340Z,2.05
2022-11-24T21:48:44.940Z,1.40
2022-11-24T21:51:17.058Z,1.38
2022-11-24T21:53:45.012Z,1.77
2022-11-24T21:56:21.877Z,1.35
2022-11-24T21:58:53.564Z,1.48
2022-11-24T22:01:22.161Z,1.30
2022-11-24T22:03:48.854Z,1.40
2022-11-24T22:06:19.231Z,1.45
2022-11-24T22:08:47.016Z,1.83
2022-11-24T22:11:22.183Z,1.75
2022-11-24T22:13:49.510Z,2.40
2022-11-24T22:16:18.391Z,1.42
2022-11-24T22:18:45.566Z,1.63
2022-11-24T22:21:17.836Z,1.60
2022-11-24T22:23:44.509Z,2.03
2022-11-24T22:26:16.619Z,1.60
2022-11-24T22:28:44.651Z,1.77
2022-11-24T22:31:16.529Z,1.20
2022-11-24T22:33:46.423Z,1.38
2022-11-24T22:36:14.629Z,1.52
2022-11-24T22:38:41.594Z,1.50
2022-11-24T22:41:10.798Z,1.58
2022-11-24T22:43:39.096Z,1.45
2022-11-24T22:46:11.100Z,1.67
2022-11-24T22:48:38.601Z,1.05
2022-11-24T22:51:13.622Z,1.43
2022-11-24T22:53:40.311Z,1.38
2022-11-24T22:56:12.292Z,1.45
2022-11-24T22:58:39.473Z,1.42
2022-11-24T23:01:06.252Z,1.45
2022-11-24T23:03:34.520Z,1.70
2022-11-24T23:06:02.509Z,1.65
2022-11-24T23:08:30.210Z,1.77
2022-11-24T23:11:08.354Z,1.58
2022-11-24T23:13:35.220Z,1.67
2022-11-24T23:16:10.876Z,1.30
2022-11-24T23:18:37.773Z,1.40
2022-11-24T23:21:15.013Z,1.88
2022-11-24T23:23:41.825Z,1.02
2022-11-24T23:26:11.518Z,1.83
2022-11-24T23:28:38.501Z,1.40
2022-11-24T23:31:08.900Z,1.42
2022-11-24T23:33:35.942Z,1.40
2022-11-24T23:36:04.777Z,1.50
2022-11-24T23:38:34.648Z,2.35
2022-11-24T23:41:06.257Z,1.30
2022-11-24T23:43:34.404Z,1.70
2022-11-24T23:46:06.038Z,2.17
2022-11-24T23:48:33.555Z,2.17
2022-11-24T23:51:07.754Z,1.40
2022-11-24T23:53:35.660Z,1.50
2022-11-24T23:56:02.566Z,1.58
2022-11-24T23:58:29.291Z,1.35
